Terminal Aerodrome Forecast
Issued by NWS

Home | Current Version | Previous Version | Text Only | Print | Product List | Glossary On
Versions: 1 2 3 4 5 6 7 8 9 10 11 12 13 14 15 16 17 18 19 20 21 22 23
453
FTUS41 KPHI 230653 AAA
TAFMIV
TAF AMD
KMIV 230653Z 2307/2406 35005KT P6SM BKN250
     FM231200 03007KT P6SM BKN250
     FM231600 07007KT P6SM BKN250
     FM232000 11007KT P6SM SCT250
     FM240300 VRB03KT P6SM OVC200=

USA.gov is the U.S. government's official web portal to all federal, state and local government web resources and services.